Time;durP1;ratioP1;P1;durP2;ratioP2;P2;SDS_P1;SDS_P2;PMS_P1;PMS_P2;Temp;Humidity;BMP_temperature;BMP_pressure;BME280_temperature;BME280_humidity;BME280_pressure;Samples;Min_cycle;Max_cycle;Signal;HPM_P1;HPM_P2
2022/04/08 00:01:41;;;;;;;20.52;2.53;;;;;;;5.97;74.33;99712.00;5094744;28;20028;-36
2022/04/08 00:04:06;;;;;;;22.25;2.08;;;;;;;5.98;74.77;99725.19;5107937;28;20050;-37
2022/04/08 00:06:31;;;;;;;23.15;2.72;;;;;;;6.01;75.81;99722.16;5106315;28;20028;-37
2022/04/08 00:08:57;;;;;;;25.73;3.13;;;;;;;6.02;74.70;99722.97;5098465;28;20028;-38
2022/04/08 00:11:22;;;;;;;21.70;1.80;;;;;;;5.89;75.37;99726.22;5098273;28;20059;-36
2022/04/08 00:13:51;;;;;;;17.23;2.05;;;;;;;5.80;75.58;99730.78;5107819;28;20040;-36
2022/04/08 00:16:16;;;;;;;28.38;2.55;;;;;;;5.78;75.32;99721.31;5110939;28;20029;-35
2022/04/08 00:18:42;;;;;;;15.57;2.17;;;;;;;5.78;75.03;99740.81;5089409;28;20100;-38
2022/04/08 00:21:07;;;;;;;21.02;2.83;;;;;;;5.74;75.88;99736.84;5118928;28;20028;-37
2022/04/08 00:23:32;;;;;;;22.00;3.05;;;;;;;5.69;74.24;99734.72;5112039;28;20021;-35
2022/04/08 00:25:58;;;;;;;12.38;1.40;;;;;;;5.71;74.40;99737.19;5097997;28;20029;-34
2022/04/08 00:28:23;;;;;;;15.30;2.00;;;;;;;5.74;74.50;99742.19;5112479;28;20048;-35
2022/04/08 00:30:48;;;;;;;23.00;2.72;;;;;;;5.69;74.97;99731.22;5108559;28;20024;-36
2022/04/08 00:33:14;;;;;;;12.88;1.63;;;;;;;5.65;74.90;99748.59;5118557;28;20081;-36
2022/04/08 00:35:39;;;;;;;19.00;2.10;;;;;;;5.59;75.41;99743.97;5108413;28;20023;-37
2022/04/08 00:38:06;;;;;;;19.90;1.80;;;;;;;5.55;75.33;99740.78;5098095;28;20033;-35
2022/04/08 00:40:33;;;;;;;19.55;2.03;;;;;;;5.52;75.68;99748.34;5105030;28;20024;-36
2022/04/08 00:42:58;;;;;;;16.77;1.63;;;;;;;5.49;75.78;99747.66;5118463;28;20036;-36
2022/04/08 00:45:24;;;;;;;24.27;2.55;;;;;;;5.43;76.45;99748.38;5108591;28;20074;-36
2022/04/08 00:47:49;;;;;;;22.02;2.83;;;;;;;5.36;76.58;99752.75;5097443;28;20033;-37
2022/04/08 00:50:15;;;;;;;16.08;1.60;;;;;;;5.37;76.79;99748.25;5097458;28;20056;-36
2022/04/08 00:52:42;;;;;;;21.65;2.20;;;;;;;5.33;77.60;99769.13;5097532;28;20035;-35
2022/04/08 00:55:08;;;;;;;14.50;1.90;;;;;;;5.29;77.71;99759.78;5097682;28;20042;-38
2022/04/08 00:57:33;;;;;;;15.90;1.90;;;;;;;5.29;77.25;99765.13;5097595;28;20024;-35
2022/04/08 01:00:09;;;;;;;20.13;1.90;;;;;;;5.28;77.65;99777.63;5099171;28;20031;-38
2022/04/08 01:02:35;;;;;;;22.73;2.38;;;;;;;5.25;78.02;99775.31;5097279;28;20020;-36
2022/04/08 01:05:00;;;;;;;24.75;2.60;;;;;;;5.24;77.89;99767.50;5097797;28;20097;-38
2022/04/08 01:07:26;;;;;;;23.42;3.03;;;;;;;5.24;77.16;99767.50;5097226;28;20036;-36
2022/04/08 01:09:52;;;;;;;18.25;1.92;;;;;;;5.24;77.43;99765.66;5100511;28;20031;-36
2022/04/08 01:12:17;;;;;;;23.83;2.95;;;;;;;5.25;78.02;99764.66;5097650;28;20024;-35
2022/04/08 01:14:43;;;;;;;21.35;2.95;;;;;;;5.28;78.18;99774.97;5101283;28;20039;-36
2022/04/08 01:17:08;;;;;;;23.88;3.20;;;;;;;5.34;78.39;99778.78;5103504;28;20025;-38
2022/04/08 01:19:33;;;;;;;17.63;2.70;;;;;;;5.40;78.69;99766.59;5098503;28;20021;-36
2022/04/08 01:21:58;;;;;;;31.05;2.75;;;;;;;5.43;78.67;99766.25;5096791;28;20028;-38
2022/04/08 01:24:27;;;;;;;28.50;2.70;;;;;;;5.53;78.85;99772.19;5098524;28;20131;-37
2022/04/08 01:26:52;;;;;;;;;;;;;;;5.56;78.24;99787.03;5109125;28;20127;-35
2022/04/08 01:29:18;;;;;;;21.42;2.90;;;;;;;5.57;78.68;99799.34;5100051;28;20016;-37
2022/04/08 01:31:45;;;;;;;20.48;2.97;;;;;;;5.62;78.54;99791.66;5117148;28;20032;-37
2022/04/08 01:34:10;;;;;;;21.25;2.58;;;;;;;5.61;78.63;99790.81;5097015;28;20020;-36
2022/04/08 01:36:37;;;;;;;23.60;2.95;;;;;;;5.64;76.85;99792.31;5096697;28;20025;-38
2022/04/08 01:39:03;;;;;;;13.70;1.77;;;;;;;5.65;75.53;99794.78;5110239;28;20024;-35
2022/04/08 01:41:31;;;;;;;14.93;1.98;;;;;;;5.69;75.32;99800.63;5096641;28;20035;-36
2022/04/08 01:43:56;;;;;;;14.03;2.10;;;;;;;5.73;75.59;99801.91;5110107;28;20050;-35
2022/04/08 01:46:22;;;;;;;12.25;3.08;;;;;;;5.75;75.62;99791.06;5114115;28;20290;-37
2022/04/08 01:48:48;;;;;;;14.25;2.65;;;;;;;5.73;74.50;99799.25;5098068;28;20029;-39
2022/04/08 01:51:14;;;;;;;6.25;2.08;;;;;;;5.68;72.31;99807.78;5115297;28;20036;-38
2022/04/08 01:53:39;;;;;;;14.65;2.15;;;;;;;5.68;71.58;99804.28;5106939;28;20036;-37
2022/04/08 01:56:04;;;;;;;10.18;2.50;;;;;;;5.63;71.79;99814.66;5096604;28;20044;-34
2022/04/08 01:58:30;;;;;;;14.85;2.28;;;;;;;5.60;73.12;99809.66;5104097;28;20070;-36
2022/04/08 02:00:55;;;;;;;13.27;2.65;;;;;;;5.57;73.22;99815.38;5100645;28;20051;-36
2022/04/08 02:03:21;;;;;;;14.05;2.20;;;;;;;5.52;73.02;99805.19;5101842;28;20027;-39
2022/04/08 02:05:46;;;;;;;13.30;1.95;;;;;;;5.50;72.94;99813.41;5105195;28;20032;-35
2022/04/08 02:08:12;;;;;;;13.35;2.13;;;;;;;5.44;72.66;99813.25;5102146;28;20028;-38
2022/04/08 02:10:37;;;;;;;14.57;1.80;;;;;;;5.39;72.99;99810.28;5096444;28;20036;-39
2022/04/08 02:13:02;;;;;;;9.10;1.77;;;;;;;5.36;73.13;99810.63;5097760;28;20082;-37
2022/04/08 02:15:32;;;;;;;16.48;2.25;;;;;;;5.36;73.57;99811.44;5110852;28;20021;-38
2022/04/08 02:17:58;;;;;;;15.65;3.30;;;;;;;5.34;73.60;99805.44;5112294;28;20035;-37
2022/04/08 02:20:24;;;;;;;21.75;3.00;;;;;;;5.34;73.72;99800.09;5095829;28;20044;-35
2022/04/08 02:22:50;;;;;;;16.45;2.33;;;;;;;5.36;73.83;99805.28;5093375;28;20519;-36
2022/04/08 02:25:15;;;;;;;13.75;1.90;;;;;;;5.39;74.09;99808.44;5112138;28;20047;-37
2022/04/08 02:27:41;;;;;;;13.65;2.33;;;;;;;5.33;73.23;99805.63;5110052;28;20051;-37
2022/04/08 02:30:07;;;;;;;16.90;2.38;;;;;;;5.34;73.74;99810.78;5114626;28;20044;-36
2022/04/08 02:32:32;;;;;;;10.43;2.67;;;;;;;5.33;73.69;99798.47;5107998;28;20067;-35
2022/04/08 02:34:57;;;;;;;16.40;1.92;;;;;;;5.29;73.09;99791.78;5102559;28;20036;-36
2022/04/08 02:37:23;;;;;;;14.77;2.00;;;;;;;5.26;72.32;99795.63;5095209;28;20028;-38
2022/04/08 02:39:48;;;;;;;8.25;1.45;;;;;;;5.26;71.87;99798.31;5095532;28;20051;-38
2022/04/08 02:42:13;;;;;;;11.90;1.52;;;;;;;5.23;71.04;99795.16;5095413;28;20138;-36
2022/04/08 02:44:39;;;;;;;6.22;1.45;;;;;;;5.21;70.55;99794.50;5110151;28;20028;-36
2022/04/08 02:47:04;;;;;;;14.13;2.20;;;;;;;5.18;71.25;99794.84;5097266;28;20036;-36
2022/04/08 02:49:30;;;;;;;11.82;1.88;;;;;;;5.20;71.54;99792.84;5109131;28;20039;-35
2022/04/08 02:51:55;;;;;;;14.60;1.75;;;;;;;5.17;72.56;99799.34;5115803;28;20171;-37
2022/04/08 02:54:21;;;;;;;11.82;2.03;;;;;;;5.18;73.12;99800.19;5103580;28;20028;-38
2022/04/08 02:56:46;;;;;;;10.02;1.50;;;;;;;5.16;73.61;99812.84;5095446;28;20136;-37
2022/04/08 02:59:11;;;;;;;13.80;1.88;;;;;;;5.14;74.37;99815.72;5095705;28;20028;-37
2022/04/08 03:01:38;;;;;;;14.85;1.92;;;;;;;5.14;75.73;99812.22;5095688;28;20050;-34
2022/04/08 03:04:06;;;;;;;17.50;1.80;;;;;;;5.13;76.08;99813.22;5103555;28;20039;-35
2022/04/08 03:06:31;;;;;;;12.88;3.30;;;;;;;5.13;76.10;99818.53;5101837;28;20020;-35
2022/04/08 03:08:56;;;;;;;13.50;1.50;;;;;;;5.13;75.47;99819.38;5103135;28;20045;-35
2022/04/08 03:11:22;;;;;;;6.38;1.70;;;;;;;5.13;75.25;99829.22;5111906;28;20039;-35
2022/04/08 03:13:47;;;;;;;12.70;1.60;;;;;;;5.14;74.83;99830.88;5094974;28;20016;-38
2022/04/08 03:16:13;;;;;;;15.10;1.67;;;;;;;5.15;75.58;99832.53;5084697;28;20049;-38
2022/04/08 03:18:38;;;;;;;9.15;1.70;;;;;;;5.16;75.95;99834.19;5116032;28;20039;-36
2022/04/08 03:21:03;;;;;;;14.88;1.63;;;;;;;5.15;76.12;99837.88;5115150;28;20022;-37
2022/04/08 03:23:29;;;;;;;14.02;1.98;;;;;;;5.12;75.69;99843.56;5113172;28;20043;-38
2022/04/08 03:25:54;;;;;;;12.57;1.40;;;;;;;5.10;76.24;99842.88;5095122;28;20078;-35
2022/04/08 03:28:20;;;;;;;11.15;1.67;;;;;;;5.06;77.15;99840.56;5095643;28;20056;-40
2022/04/08 03:30:46;;;;;;;11.90;1.90;;;;;;;5.04;77.34;99841.75;5095270;28;20021;-36
2022/04/08 03:33:11;;;;;;;9.40;1.63;;;;;;;5.02;77.28;99844.56;5095082;28;20078;-36
2022/04/08 03:35:37;;;;;;;11.80;1.30;;;;;;;5.00;76.83;99843.94;5095244;28;20024;-37
2022/04/08 03:38:02;;;;;;;14.10;1.40;;;;;;;5.00;77.14;99841.25;5077556;28;20016;-37
2022/04/08 03:40:28;;;;;;;22.73;1.67;;;;;;;5.00;77.23;99837.75;5096255;28;20035;-37
2022/04/08 03:42:53;;;;;;;9.65;1.73;;;;;;;4.99;76.96;99836.91;5099111;28;20108;-37
2022/04/08 03:45:18;;;;;;;12.30;1.85;;;;;;;4.98;77.23;99831.78;5099351;28;20188;-38
2022/04/08 03:47:44;;;;;;;9.35;1.52;;;;;;;5.00;76.90;99840.41;5098444;28;20037;-38
2022/04/08 03:50:09;;;;;;;10.18;1.45;;;;;;;5.01;77.47;99834.91;5113380;28;20044;-37
2022/04/08 03:52:34;;;;;;;12.63;1.67;;;;;;;5.00;77.08;99827.94;5105193;28;20081;-36
2022/04/08 03:55:01;;;;;;;9.40;1.30;;;;;;;4.98;76.68;99821.09;5099029;28;20025;-35
2022/04/08 03:57:27;;;;;;;11.40;1.48;;;;;;;4.99;76.45;99820.91;5099083;28;20079;-36
2022/04/08 03:59:52;;;;;;;13.57;1.40;;;;;;;4.99;76.21;99812.91;5110579;28;20021;-36
2022/04/08 04:02:18;;;;;;;16.13;1.50;;;;;;;5.00;76.25;99825.25;5109109;28;20036;-37
2022/04/08 04:04:43;;;;;;;19.75;2.17;;;;;;;5.02;75.65;99823.22;5098858;28;20032;-38
2022/04/08 04:07:09;;;;;;;10.25;1.90;;;;;;;5.00;76.29;99819.94;5112412;28;20086;-35
2022/04/08 04:09:34;;;;;;;8.73;1.27;;;;;;;4.99;76.42;99822.75;5084018;28;20051;-37
2022/04/08 04:11:59;;;;;;;19.20;1.55;;;;;;;4.97;76.16;99820.25;5105556;28;20052;-36
2022/04/08 04:14:25;;;;;;;10.15;1.73;;;;;;;4.98;76.56;99826.44;5102138;28;20025;-37
2022/04/08 04:16:50;;;;;;;9.85;1.50;;;;;;;4.98;76.85;99816.59;5098651;28;20028;-35
2022/04/08 04:19:17;;;;;;;17.10;2.80;;;;;;;4.97;76.56;99814.91;5098201;28;20063;-36
2022/04/08 04:21:42;;;;;;;16.23;2.03;;;;;;;4.99;76.42;99817.41;5098126;28;20026;-35
2022/04/08 04:24:08;;;;;;;15.07;2.10;;;;;;;5.00;76.62;99819.06;5106755;28;20036;-38
2022/04/08 04:26:33;;;;;;;21.13;2.03;;;;;;;5.03;76.55;99824.91;5098005;28;20070;-37
2022/04/08 04:28:58;;;;;;;15.32;1.88;;;;;;;5.06;76.19;99818.41;5098114;28;20051;-39
2022/04/08 04:31:23;;;;;;;18.52;2.08;;;;;;;5.06;76.08;99824.56;5110408;28;20052;-36
2022/04/08 04:33:49;;;;;;;17.25;2.75;;;;;;;5.07;75.55;99823.56;5104309;28;20039;-36
2022/04/08 04:36:15;;;;;;;11.20;1.55;;;;;;;5.11;75.41;99825.88;5089570;28;20035;-37
2022/04/08 04:38:40;;;;;;;13.02;1.75;;;;;;;5.19;75.29;99823.22;5098291;28;20033;-36
2022/04/08 04:41:05;;;;;;;13.32;1.85;;;;;;;5.22;75.54;99822.84;5111191;28;20024;-37
2022/04/08 04:43:31;;;;;;;15.73;2.33;;;;;;;5.26;75.57;99824.97;5118728;28;20041;-35
2022/04/08 04:45:56;;;;;;;21.95;2.03;;;;;;;5.30;75.77;99820.16;5112916;28;20031;-38
2022/04/08 04:48:22;;;;;;;10.60;1.60;;;;;;;5.33;75.16;99824.31;5109594;28;20020;-35
2022/04/08 04:50:48;;;;;;;14.10;1.92;;;;;;;5.38;75.08;99822.78;5106995;28;20036;-36
2022/04/08 04:53:13;;;;;;;17.02;2.03;;;;;;;5.40;74.90;99820.78;5101951;28;20078;-36
2022/04/08 04:55:39;;;;;;;25.83;2.05;;;;;;;5.41;74.59;99819.75;5098139;28;20042;-35
2022/04/08 04:58:04;;;;;;;26.00;2.13;;;;;;;5.43;74.00;99825.78;5097285;28;20036;-36
2022/04/08 05:00:30;;;;;;;28.02;2.72;;;;;;;5.43;74.44;99824.94;5114679;28;20058;-35
2022/04/08 05:02:55;;;;;;;15.15;1.92;;;;;;;5.42;73.76;99821.41;5115542;28;20024;-39
2022/04/08 05:05:20;;;;;;;13.63;1.73;;;;;;;5.40;72.72;99822.63;5097234;28;20043;-36
2022/04/08 05:07:46;;;;;;;14.52;1.83;;;;;;;5.41;72.29;99827.78;5107891;28;20032;-37
2022/04/08 05:10:11;;;;;;;12.18;1.88;;;;;;;5.40;72.11;99818.13;5117417;28;20024;-36
2022/04/08 05:12:36;;;;;;;12.25;1.60;;;;;;;5.42;71.98;99824.09;5102599;28;20041;-39
2022/04/08 05:15:06;;;;;;;10.85;1.45;;;;;;;5.44;72.19;99818.59;5096763;28;20020;-38
2022/04/08 05:17:35;;;;;;;14.80;1.58;;;;;;;5.46;72.12;99822.75;5096905;28;20016;-36
2022/04/08 05:20:05;;;;;;;18.38;2.00;;;;;;;5.44;72.33;99819.41;5096815;28;20017;-39
2022/04/08 05:22:31;;;;;;;16.42;1.60;;;;;;;5.47;72.44;99811.06;5097889;28;20032;-35
2022/04/08 05:24:58;;;;;;;14.20;2.22;;;;;;;5.47;72.89;99811.06;5096735;28;20036;-37
2022/04/08 05:27:23;;;;;;;9.30;1.50;;;;;;;5.51;73.03;99814.22;5101977;28;20020;-39
2022/04/08 05:29:49;;;;;;;18.63;2.20;;;;;;;5.56;72.75;99816.38;5098307;28;20039;-38
2022/04/08 05:32:14;;;;;;;16.50;2.35;;;;;;;5.58;72.85;99812.53;5117190;28;20016;-38
2022/04/08 05:34:39;;;;;;;21.45;1.92;;;;;;;5.60;72.95;99815.00;5102897;28;20024;-34
2022/04/08 05:37:04;;;;;;;16.08;1.80;;;;;;;5.63;72.78;99803.97;5116600;28;20032;-39
2022/04/08 05:39:30;;;;;;;13.48;1.60;;;;;;;5.67;73.10;99790.09;5100296;28;20051;-38
2022/04/08 05:41:55;;;;;;;28.42;2.63;;;;;;;5.71;72.99;99803.94;5088922;28;20040;-36
2022/04/08 05:44:20;;;;;;;18.73;2.05;;;;;;;5.80;73.24;99789.53;5095238;28;20025;-36
2022/04/08 05:46:46;;;;;;;10.30;1.58;;;;;;;5.94;73.16;99790.63;5093637;28;20033;-38
2022/04/08 05:49:11;;;;;;;10.13;1.60;;;;;;;6.17;73.09;99790.63;5096521;28;20025;-38
2022/04/08 05:51:36;;;;;;;20.52;2.30;;;;;;;6.43;72.00;99792.94;5091267;28;20040;-35
2022/04/08 05:54:02;;;;;;;17.63;2.22;;;;;;;6.72;71.62;99794.81;5101008;28;20024;-38
2022/04/08 05:56:27;;;;;;;23.30;3.42;;;;;;;6.90;70.45;99788.28;5108629;28;20028;-35
2022/04/08 05:58:52;;;;;;;15.98;1.98;;;;;;;6.86;69.78;99790.50;5116241;28;20024;-39
2022/04/08 06:01:17;;;;;;;16.58;2.03;;;;;;;6.82;70.20;99790.03;5106331;28;20020;-35
2022/04/08 06:03:43;;;;;;;19.27;2.40;;;;;;;6.81;70.59;99792.88;5078256;28;20036;-38
2022/04/08 06:06:08;;;;;;;23.00;2.67;;;;;;;6.84;71.00;99794.38;5095983;28;20029;-34
2022/04/08 06:08:33;;;;;;;20.08;2.35;;;;;;;6.87;71.69;99791.31;5096100;28;20031;-36
2022/04/08 06:10:59;;;;;;;18.75;2.22;;;;;;;6.87;71.38;99802.00;5105952;28;20035;-38
2022/04/08 06:13:26;;;;;;;19.17;2.22;;;;;;;6.95;71.10;99797.44;5095293;28;20052;-36
2022/04/08 06:15:51;;;;;;;20.75;3.65;;;;;;;7.04;71.25;99803.50;5094615;28;20033;-35
2022/04/08 06:18:20;;;;;;;25.65;2.95;;;;;;;7.11;70.98;99799.09;5095330;28;20024;-38
2022/04/08 06:20:46;;;;;;;27.83;2.47;;;;;;;7.13;70.96;99791.69;5094625;28;20048;-35
2022/04/08 06:23:11;;;;;;;18.67;2.20;;;;;;;7.02;71.05;99794.84;5095774;28;20035;-39
2022/04/08 06:25:37;;;;;;;20.27;1.98;;;;;;;7.13;70.77;99791.69;5095929;28;20016;-35
2022/04/08 06:28:04;;;;;;;17.50;3.28;;;;;;;7.18;70.96;99791.97;5107545;28;20032;-38
2022/04/08 06:30:35;;;;;;;17.08;2.20;;;;;;;7.34;70.27;99790.94;5100158;28;20028;-39
2022/04/08 06:33:01;;;;;;;11.75;2.13;;;;;;;7.24;69.51;99795.72;5094483;28;20035;-39
2022/04/08 06:35:27;;;;;;;19.17;2.50;;;;;;;7.33;69.71;99797.31;5095353;28;20037;-36
2022/04/08 06:38:01;;;;;;;17.55;2.15;;;;;;;7.43;69.84;99797.84;5095313;28;20032;-35
2022/04/08 06:40:26;;;;;;;17.55;2.67;;;;;;;7.46;68.32;99796.66;5095505;28;20055;-33
2022/04/08 06:42:59;;;;;;;28.52;2.55;;;;;;;7.61;69.07;99805.50;5093657;28;20029;-36
2022/04/08 06:45:26;;;;;;;19.70;2.20;;;;;;;7.74;67.23;99802.13;5095082;28;20047;-37
2022/04/08 06:47:51;;;;;;;14.73;1.67;;;;;;;8.07;67.23;99809.69;5095100;28;20052;-40
2022/04/08 06:50:17;;;;;;;12.70;1.73;;;;;;;8.50;65.51;99798.94;5077594;28;20043;-40
2022/04/08 06:52:43;;;;;;;14.00;2.03;;;;;;;8.86;63.58;99803.34;5095096;28;20061;-35
2022/04/08 06:55:09;;;;;;;18.17;1.67;;;;;;;9.08;63.48;99801.41;5095256;28;20044;-36
2022/04/08 06:57:34;;;;;;;20.50;2.00;;;;;;;9.47;62.47;99803.47;5095068;28;20054;-36
2022/04/08 06:59:59;;;;;;;11.75;1.70;;;;;;;9.25;61.10;99802.75;5095139;28;20076;-39
2022/04/08 07:02:25;;;;;;;13.70;2.10;;;;;;;9.34;61.47;99796.19;5094638;28;20025;-37
2022/04/08 07:04:51;;;;;;;17.25;2.50;;;;;;;9.46;61.62;99799.16;5095454;28;20025;-34
2022/04/08 07:07:16;;;;;;;11.75;1.60;;;;;;;9.77;61.15;99798.63;5095479;28;20016;-37
2022/04/08 07:09:41;;;;;;;10.38;1.98;;;;;;;9.91;60.27;99796.81;5094433;28;20046;-36
2022/04/08 07:12:07;;;;;;;15.98;1.88;;;;;;;9.96;59.32;99799.72;5077507;28;20062;-35
2022/04/08 07:14:32;;;;;;;12.82;1.70;;;;;;;10.10;58.31;99804.06;5095292;28;20035;-35
2022/04/08 07:16:57;;;;;;;12.70;1.80;;;;;;;9.92;58.20;99798.44;5094974;28;20028;-39
2022/04/08 07:19:23;;;;;;;19.27;2.38;;;;;;;10.05;58.47;99789.59;5095530;28;20016;-37
2022/04/08 07:21:48;;;;;;;19.88;2.00;;;;;;;10.04;58.23;99787.94;5094362;28;20066;-37
2022/04/08 07:24:13;;;;;;;14.77;1.52;;;;;;;9.83;59.14;99795.13;5090251;28;20052;-35
2022/04/08 07:26:39;;;;;;;14.23;1.98;;;;;;;9.78;58.85;99796.78;5091693;28;20044;-33
2022/04/08 07:29:04;;;;;;;18.60;2.10;;;;;;;9.66;59.31;99794.69;5093005;28;20491;-37
2022/04/08 07:31:30;;;;;;;19.17;2.42;;;;;;;9.56;58.98;99788.84;5093148;28;20020;-34
2022/04/08 07:33:55;;;;;;;18.25;2.03;;;;;;;9.18;60.24;99791.97;5093501;28;20016;-37
2022/04/08 07:36:21;;;;;;;14.07;2.45;;;;;;;8.88;62.08;99794.09;5093730;28;20059;-37
2022/04/08 07:38:46;;;;;;;13.80;1.73;;;;;;;8.82;61.03;99792.19;5093937;28;20040;-38
2022/04/08 07:41:11;;;;;;;13.30;1.80;;;;;;;8.64;62.08;99800.72;5093840;28;20067;-35
2022/04/08 07:43:37;;;;;;;16.70;2.67;;;;;;;8.67;62.59;99789.59;5093961;28;20024;-34
2022/04/08 07:46:02;;;;;;;11.52;1.92;;;;;;;8.88;62.02;99791.41;5094476;28;20032;-35
2022/04/08 07:48:27;;;;;;;10.15;1.50;;;;;;;9.14;61.34;99784.53;5092544;28;20098;-37
2022/04/08 07:50:54;;;;;;;11.35;1.90;;;;;;;9.56;60.43;99785.34;5091129;28;20036;-37
2022/04/08 07:53:19;;;;;;;14.20;1.70;;;;;;;9.65;58.96;99793.00;5093206;28;20025;-35
2022/04/08 07:55:44;;;;;;;10.25;1.30;;;;;;;9.76;59.27;99786.22;5085359;28;20062;-35
2022/04/08 07:58:10;;;;;;;12.23;1.70;;;;;;;9.70;59.11;99789.72;5087052;28;20017;-35
2022/04/08 08:00:35;;;;;;;14.32;1.73;;;;;;;9.93;58.71;99780.50;5087117;28;20036;-37
2022/04/08 08:03:00;;;;;;;8.65;1.67;;;;;;;9.87;57.82;99782.97;5087400;28;20036;-37
2022/04/08 08:05:26;;;;;;;11.43;1.85;;;;;;;10.10;58.60;99781.75;5093597;28;20044;-33
2022/04/08 08:07:53;;;;;;;9.65;1.55;;;;;;;10.23;56.89;99787.13;5098085;28;20032;-37
2022/04/08 08:10:20;;;;;;;17.27;2.25;;;;;;;10.15;57.89;99775.75;5102727;28;20032;-37
2022/04/08 08:12:45;;;;;;;22.98;1.98;;;;;;;10.04;57.93;99777.19;5073961;28;20031;-35
2022/04/08 08:15:11;;;;;;;10.88;2.05;;;;;;;10.46;57.21;99773.31;5086267;28;20064;-34
2022/04/08 08:17:38;;;;;;;9.75;1.60;;;;;;;10.93;54.52;99775.97;5084247;28;20112;-34
2022/04/08 08:20:07;;;;;;;17.07;1.83;;;;;;;10.73;56.21;99779.50;5101173;28;20050;-35
2022/04/08 08:22:33;;;;;;;18.17;2.08;;;;;;;11.04;55.48;99774.50;5086031;28;20082;-33
2022/04/08 08:24:59;;;;;;;14.25;2.00;;;;;;;11.13;55.38;99765.94;5091311;28;20041;-35
2022/04/08 08:27:24;;;;;;;19.00;1.90;;;;;;;11.05;54.63;99766.19;5088929;28;20052;-35
2022/04/08 08:29:49;;;;;;;18.67;2.15;;;;;;;11.16;55.74;99764.69;5101339;28;20534;-34
2022/04/08 08:32:15;;;;;;;18.98;2.05;;;;;;;11.47;54.30;99752.38;5091568;28;20029;-33
2022/04/08 08:34:40;;;;;;;11.63;1.80;;;;;;;11.35;52.33;99754.91;5107733;28;20020;-33
2022/04/08 08:37:06;;;;;;;13.10;1.65;;;;;;;11.16;53.29;99762.84;5092335;28;20051;-34
2022/04/08 08:39:33;;;;;;;24.23;2.28;;;;;;;10.82;55.61;99761.28;5091918;28;20024;-34
2022/04/08 08:41:58;;;;;;;7.57;1.48;;;;;;;10.53;55.90;99762.53;5092743;28;20036;-33
2022/04/08 08:44:23;;;;;;;13.48;1.77;;;;;;;10.53;57.78;99763.41;5104572;28;20402;-34
2022/04/08 08:46:49;;;;;;;11.70;1.80;;;;;;;10.93;55.08;99757.13;5112350;28;20038;-33
2022/04/08 08:49:19;;;;;;;12.00;1.92;;;;;;;11.11;54.04;99754.59;5096273;28;20025;-35
2022/04/08 08:51:52;;;;;;;15.02;2.15;;;;;;;11.13;53.67;99752.47;5109996;28;20048;-35
2022/04/08 08:54:17;;;;;;;15.70;1.85;;;;;;;10.82;56.48;99750.53;5070863;28;20033;-34
2022/04/08 08:56:43;;;;;;;16.05;1.85;;;;;;;10.95;55.57;99749.63;5092888;28;20036;-35
2022/04/08 08:59:10;;;;;;;12.80;1.33;;;;;;;11.13;54.99;99743.59;5074058;28;20024;-33
2022/04/08 09:01:35;;;;;;;15.68;1.98;;;;;;;11.32;53.48;99737.31;5111357;28;20058;-34
2022/04/08 09:04:00;;;;;;;15.95;2.08;;;;;;;11.11;54.34;99748.34;5101233;28;20036;-34
2022/04/08 09:06:26;;;;;;;15.80;1.95;;;;;;;10.60;55.91;99751.78;5107140;28;20024;-33
2022/04/08 09:08:56;;;;;;;16.88;2.95;;;;;;;10.59;57.17;99750.97;5097696;28;20032;-36
2022/04/08 09:11:26;;;;;;;14.88;2.38;;;;;;;10.69;57.07;99756.75;5108258;28;20027;-33
2022/04/08 09:13:54;;;;;;;12.90;1.70;;;;;;;10.64;57.33;99763.81;5109849;28;20051;-35
2022/04/08 09:16:27;;;;;;;13.32;1.98;;;;;;;10.51;56.36;99760.06;5093178;28;20020;-33
2022/04/08 09:18:54;;;;;;;17.88;2.63;;;;;;;10.51;55.18;99760.06;5109149;28;20129;-33
2022/04/08 09:21:25;;;;;;;16.38;2.50;;;;;;;10.22;58.58;99757.78;5090619;28;20048;-34
2022/04/08 09:23:51;;;;;;;16.95;2.40;;;;;;;10.13;59.97;99748.25;5089882;28;20153;-34
2022/04/08 09:26:17;;;;;;;10.35;1.90;;;;;;;9.81;60.14;99743.44;5108617;28;20024;-34
2022/04/08 09:28:43;;;;;;;9.63;2.00;;;;;;;9.94;60.44;99753.41;5108038;28;20127;-34
2022/04/08 09:31:21;;;;;;;13.52;1.92;;;;;;;9.76;60.61;99740.53;5090680;28;20039;-33
2022/04/08 09:33:52;;;;;;;14.50;2.53;;;;;;;9.93;60.42;99745.56;5092008;28;20033;-34
2022/04/08 09:36:29;;;;;;;11.88;1.65;;;;;;;9.82;58.92;99745.13;5100833;28;20093;-34
2022/04/08 09:38:54;;;;;;;10.25;1.98;;;;;;;9.45;60.03;99738.38;5101693;28;20039;-34
2022/04/08 09:41:19;;;;;;;14.85;1.83;;;;;;;9.48;59.97;99743.38;5110483;28;20076;-35
2022/04/08 09:43:44;;;;;;;16.60;2.03;;;;;;;9.66;60.65;99734.72;5091563;28;20004;-36
2022/04/08 09:46:17;;;;;;;19.17;2.28;;;;;;;9.63;59.29;99737.81;5110079;28;20054;-35
2022/04/08 09:48:43;;;;;;;15.65;2.30;;;;;;;9.69;59.22;99728.97;5100159;28;20049;-34
2022/04/08 09:51:09;;;;;;;19.90;3.83;;;;;;;9.75;60.45;99744.28;5091334;28;20041;-38
2022/04/08 09:53:41;;;;;;;17.30;2.25;;;;;;;9.91;61.66;99748.44;5101167;28;20032;-35
2022/04/08 09:56:10;;;;;;;10.85;2.10;;;;;;;10.26;59.89;99751.75;5090956;28;20036;-35
2022/04/08 09:58:36;;;;;;;12.90;2.10;;;;;;;10.38;57.07;99748.50;5091244;28;20024;-35
2022/04/08 10:01:02;;;;;;;14.10;2.17;;;;;;;10.33;58.26;99757.19;5091214;28;20024;-33
2022/04/08 10:03:27;;;;;;;11.23;1.80;;;;;;;10.47;57.67;99748.06;5105732;28;20030;-32
2022/04/08 10:05:53;;;;;;;13.63;2.28;;;;;;;10.63;57.13;99745.97;5105114;28;20078;-32
2022/04/08 10:08:19;;;;;;;14.50;2.67;;;;;;;10.83;57.24;99751.34;5106008;28;20207;-34
2022/04/08 10:10:48;;;;;;;12.60;2.08;;;;;;;11.11;54.78;99754.59;5087960;28;20028;-33
2022/04/08 10:13:32;;;;;;;15.15;2.50;;;;;;;11.13;54.70;99757.06;5108474;28;20048;-33
2022/04/08 10:16:20;;;;;;;15.77;2.50;;;;;;;11.19;54.99;99759.72;5086639;28;20021;-33
2022/04/08 10:18:47;;;;;;;9.15;1.77;;;;;;;11.32;55.29;99755.31;5102081;28;20083;-33
2022/04/08 10:21:13;;;;;;;21.07;2.67;;;;;;;11.37;56.17;99758.19;5097959;28;20047;-32
2022/04/08 10:23:45;;;;;;;15.73;2.97;;;;;;;11.50;54.29;99760.84;5092114;28;20032;-34
2022/04/08 10:26:20;;;;;;;9.55;2.40;;;;;;;11.54;55.98;99754.00;5096170;28;20024;-33
2022/04/08 10:28:46;;;;;;;10.88;1.98;;;;;;;11.42;54.76;99744.91;5091618;28;20028;-34
2022/04/08 10:31:15;;;;;;;18.20;2.65;;;;;;;11.55;53.33;99750.25;5092711;28;20027;-34
2022/04/08 10:33:57;;;;;;;7.05;1.60;;;;;;;11.54;50.99;99745.09;5098451;28;20021;-34
2022/04/08 10:36:37;;;;;;;7.28;1.70;;;;;;;11.20;52.30;99758.69;5090633;28;20493;-34
2022/04/08 10:39:17;;;;;;;17.05;1.88;;;;;;;10.90;54.28;99765.59;5089843;28;20036;-35
2022/04/08 10:41:44;;;;;;;14.32;1.90;;;;;;;10.93;55.59;99778.66;5089601;28;20119;-35
2022/04/08 10:44:10;;;;;;;16.95;2.00;;;;;;;10.76;56.10;99775.56;5074497;28;20025;-33
2022/04/08 10:46:35;;;;;;;10.02;1.95;;;;;;;10.81;56.51;99774.94;5088229;28;20031;-37
2022/04/08 10:49:00;;;;;;;15.27;2.05;;;;;;;10.97;54.93;99766.41;5088425;28;20029;-32
2022/04/08 10:51:31;;;;;;;14.15;2.53;;;;;;;10.85;57.53;99754.63;5088254;28;20049;-35
2022/04/08 10:54:04;;;;;;;11.45;2.10;;;;;;;10.97;53.75;99744.88;5071136;28;20035;-32
2022/04/08 10:56:34;;;;;;;8.98;1.52;;;;;;;10.65;53.77;99739.34;5079774;28;20028;-34
2022/04/08 10:59:00;;;;;;;8.27;1.70;;;;;;;10.59;54.43;99734.81;5089870;28;20062;-34
2022/04/08 11:01:25;;;;;;;10.98;1.73;;;;;;;10.43;55.76;99746.03;5084805;28;20032;-36
2022/04/08 11:04:03;;;;;;;8.85;1.80;;;;;;;10.44;58.86;99743.09;5089454;28;20036;-34
2022/04/08 11:06:30;;;;;;;12.15;2.15;;;;;;;10.65;57.03;99746.59;5091166;28;20043;-33
2022/04/08 11:08:57;;;;;;;8.55;1.70;;;;;;;10.85;55.11;99760.00;5082859;28;20024;-35
2022/04/08 11:11:34;;;;;;;15.23;2.40;;;;;;;10.88;56.04;99759.63;5083107;28;20051;-35
2022/04/08 11:14:02;;;;;;;13.48;2.17;;;;;;;10.99;57.15;99753.56;5087372;28;20487;-37
2022/04/08 11:16:32;;;;;;;7.13;1.38;;;;;;;11.14;53.31;99745.25;5088061;28;20029;-35
2022/04/08 11:18:58;;;;;;;13.43;2.33;;;;;;;10.92;52.87;99742.00;5069042;28;20021;-35
2022/04/08 11:21:26;;;;;;;14.85;2.20;;;;;;;10.91;54.34;99734.97;5084818;28;20021;-36
2022/04/08 11:23:59;;;;;;;8.05;1.38;;;;;;;10.79;53.12;99732.06;5069058;28;20017;-35
2022/04/08 11:26:25;;;;;;;12.80;2.47;;;;;;;10.86;53.31;99724.00;5078581;28;20055;-35
2022/04/08 11:28:50;;;;;;;10.70;1.70;;;;;;;10.94;51.79;99726.47;5088795;28;20468;-34